createdAt,value
2018-05-01T00:02:24.221Z,99257.35
2018-05-01T00:04:56.744Z,99252.25
2018-05-01T00:07:29.285Z,99249.61
2018-05-01T00:10:02.600Z,99250.83
2018-05-01T00:12:35.186Z,99250.52
2018-05-01T00:15:07.771Z,99243.55
2018-05-01T00:17:40.352Z,99237.05
2018-05-01T00:20:12.938Z,99238.64
2018-05-01T00:22:45.436Z,99223.72
2018-05-01T00:25:18.056Z,99227.33
2018-05-01T00:27:50.542Z,99234.62
2018-05-01T00:30:23.057Z,99236.52
2018-05-01T00:32:55.551Z,99228.52
2018-05-01T00:35:28.058Z,99227.17
2018-05-01T00:38:01.211Z,99232.02
2018-05-01T00:40:33.723Z,99228.75
2018-05-01T00:43:06.314Z,99226.59
2018-05-01T00:45:38.823Z,99228.03
2018-05-01T00:48:11.302Z,99234.28
2018-05-01T00:50:43.804Z,99233.01
2018-05-01T00:53:16.346Z,99223.45
2018-05-01T00:55:48.854Z,99232.27
2018-05-01T00:58:21.363Z,99236.94
2018-05-01T01:00:53.895Z,99226.49
2018-05-01T01:03:26.405Z,99232.67
2018-05-01T01:05:58.894Z,99230.87
2018-05-01T01:08:31.459Z,99225.48
2018-05-01T01:11:04.043Z,99220.59
2018-05-01T01:13:36.566Z,99215.50
2018-05-01T01:16:09.051Z,99228.25
2018-05-01T01:18:41.591Z,99231.69
2018-05-01T01:21:14.075Z,99235.95
2018-05-01T01:23:46.582Z,99238.53
2018-05-01T01:26:19.071Z,99245.24
2018-05-01T01:28:51.817Z,99242.80
2018-05-01T01:31:24.299Z,99243.07
2018-05-01T01:33:56.804Z,99250.97
2018-05-01T01:36:28.746Z,99250.44
2018-05-01T01:39:00.804Z,99253.17
2018-05-01T01:41:32.830Z,99246.87
2018-05-01T01:44:04.820Z,99236.88
2018-05-01T01:46:36.877Z,99250.16
2018-05-01T01:49:08.852Z,99255.50
2018-05-01T01:51:40.807Z,99253.96
2018-05-01T01:54:12.879Z,99251.81
2018-05-01T01:56:44.833Z,99254.94
2018-05-01T01:59:16.808Z,99260.16
2018-05-01T02:01:48.799Z,99269.02
2018-05-01T02:04:20.769Z,99269.37
2018-05-01T02:06:52.742Z,99271.31
2018-05-01T02:09:24.719Z,99262.91
2018-05-01T02:11:56.661Z,99282.24
2018-05-01T02:14:28.651Z,99274.88
2018-05-01T02:17:01.234Z,99286.25
2018-05-01T02:19:33.195Z,99282.81
2018-05-01T02:22:05.148Z,99290.80
2018-05-01T02:24:37.117Z,99298.16
2018-05-01T02:27:09.071Z,99306.27
2018-05-01T02:29:41.096Z,99312.25
2018-05-01T02:32:13.058Z,99307.64
2018-05-01T02:34:45.040Z,99319.92
2018-05-01T02:37:17.004Z,99321.22
2018-05-01T02:39:49.064Z,99312.59
2018-05-01T02:42:21.017Z,99314.09
2018-05-01T02:44:52.986Z,99315.11
2018-05-01T02:47:24.975Z,99319.00
2018-05-01T02:49:56.944Z,99323.72
2018-05-01T02:52:28.900Z,99321.14
2018-05-01T02:55:01.483Z,99320.58
2018-05-01T02:57:33.440Z,99322.58
2018-05-01T03:00:05.446Z,99325.52
2018-05-01T03:02:37.418Z,99323.81
2018-05-01T03:05:09.394Z,99333.95
2018-05-01T03:07:41.462Z,99338.83
2018-05-01T03:10:13.440Z,99339.13
2018-05-01T03:12:45.412Z,99347.94
2018-05-01T03:15:17.382Z,99342.87
2018-05-01T03:17:49.415Z,99342.10
2018-05-01T03:20:21.342Z,99346.64
2018-05-01T03:22:53.291Z,99349.38
2018-05-01T03:25:25.440Z,99338.77
2018-05-01T03:27:57.337Z,99344.91
2018-05-01T03:30:29.309Z,99344.48
2018-05-01T03:33:01.279Z,99348.88
2018-05-01T03:35:33.251Z,99358.24
2018-05-01T03:38:05.233Z,99353.66
2018-05-01T03:40:37.199Z,99363.09
2018-05-01T03:43:09.148Z,99354.14
2018-05-01T03:45:41.125Z,99341.20
2018-05-01T03:48:13.113Z,99348.78
2018-05-01T03:50:45.096Z,99356.26
2018-05-01T03:53:17.052Z,99354.83
2018-05-01T03:55:49.067Z,99356.08
2018-05-01T03:58:21.000Z,99367.61
2018-05-01T04:00:52.976Z,99369.66
2018-05-01T04:03:24.931Z,99360.78
2018-05-01T04:05:56.900Z,99364.68
2018-05-01T04:08:28.884Z,99375.14
2018-05-01T04:11:01.404Z,99379.58
2018-05-01T04:13:33.426Z,99380.80
2018-05-01T04:16:05.534Z,99377.19
2018-05-01T04:18:37.484Z,99383.68
2018-05-01T04:21:09.555Z,99375.92
2018-05-01T04:23:41.504Z,99385.98
2018-05-01T04:26:13.498Z,99383.45
2018-05-01T04:28:45.449Z,99376.05
2018-05-01T04:31:17.423Z,99398.87
2018-05-01T04:33:49.427Z,99391.23
2018-05-01T04:36:21.404Z,99398.73
2018-05-01T04:38:53.346Z,99398.09
2018-05-01T04:41:25.428Z,99409.94
2018-05-01T04:43:57.400Z,99407.61
2018-05-01T04:46:29.375Z,99406.10
2018-05-01T04:49:01.364Z,99403.46
2018-05-01T04:51:33.341Z,99401.18
2018-05-01T04:54:05.288Z,99416.66
2018-05-01T04:56:37.362Z,99411.44
2018-05-01T04:59:09.309Z,99415.13
2018-05-01T05:01:41.310Z,99422.91
2018-05-01T05:04:13.278Z,99427.95
2018-05-01T05:06:45.356Z,99429.05
2018-05-01T05:09:17.304Z,99431.09
2018-05-01T05:11:49.315Z,99431.25
2018-05-01T05:14:21.272Z,99436.42
2018-05-01T05:16:53.346Z,99430.85
2018-05-01T05:19:25.290Z,99434.70
2018-05-01T05:21:57.283Z,99434.88
2018-05-01T05:24:29.254Z,99441.45
2018-05-01T05:27:01.500Z,99443.53
2018-05-01T05:29:33.490Z,99446.16
2018-05-01T05:32:05.450Z,99443.98
2018-05-01T05:34:37.424Z,99448.59
2018-05-01T05:37:09.383Z,99466.66
2018-05-01T05:39:41.364Z,99464.22
2018-05-01T05:42:13.314Z,99456.97
2018-05-01T05:44:45.283Z,99458.70
2018-05-01T05:47:17.239Z,99455.48
2018-05-01T05:49:49.259Z,99471.47
2018-05-01T05:52:21.210Z,99472.19
2018-05-01T05:54:53.193Z,99473.18
2018-05-01T05:57:25.138Z,99469.01
2018-05-01T05:59:57.116Z,99478.60
2018-05-01T06:02:29.121Z,99474.22
2018-05-01T06:05:01.469Z,99481.84
2018-05-01T06:07:33.425Z,99483.71
2018-05-01T06:10:05.408Z,99502.47
2018-05-01T06:12:37.415Z,99504.43
2018-05-01T06:15:09.424Z,99492.45
2018-05-01T06:17:41.463Z,99497.78
2018-05-01T06:20:13.427Z,99497.41
2018-05-01T06:22:45.416Z,99517.20
2018-05-01T06:25:17.388Z,99504.75
2018-05-01T06:27:49.434Z,99522.17
2018-05-01T06:30:21.403Z,99506.47
2018-05-01T06:32:53.347Z,99517.25
2018-05-01T06:35:25.321Z,99520.13
2018-05-01T06:37:57.332Z,99520.89
2018-05-01T06:40:29.399Z,99521.48
2018-05-01T06:43:01.376Z,99529.88
2018-05-01T06:45:33.355Z,99513.17
2018-05-01T06:48:05.331Z,99517.42
2018-05-01T06:50:37.395Z,99511.38
2018-05-01T06:53:09.343Z,99514.27
2018-05-01T06:55:41.323Z,99509.04
2018-05-01T06:58:13.271Z,99523.63
2018-05-01T07:00:45.233Z,99514.53
2018-05-01T07:03:17.190Z,99535.02
2018-05-01T07:05:49.212Z,99534.34
2018-05-01T07:08:21.151Z,99531.73
2018-05-01T07:10:53.159Z,99537.38
2018-05-01T07:13:25.108Z,99533.73
2018-05-01T07:15:57.082Z,99548.49
2018-05-01T07:18:29.038Z,99541.80
2018-05-01T07:21:01.403Z,99542.76
2018-05-01T07:23:33.354Z,99534.68
2018-05-01T07:26:05.394Z,99544.26
2018-05-01T07:28:37.351Z,99550.31
2018-05-01T07:31:09.324Z,99545.16
2018-05-01T07:33:41.279Z,99544.13
2018-05-01T07:36:13.260Z,99558.30
2018-05-01T07:38:45.254Z,99556.44
2018-05-01T07:41:17.222Z,99552.26
2018-05-01T07:43:49.176Z,99569.20
2018-05-01T07:46:21.159Z,99567.52
2018-05-01T07:48:53.113Z,99584.80
2018-05-01T07:51:25.091Z,99585.77
2018-05-01T07:53:57.076Z,99583.14
2018-05-01T07:56:29.155Z,99588.94
2018-05-01T07:59:01.431Z,99582.96
2018-05-01T08:01:33.506Z,99595.28
2018-05-01T08:04:05.463Z,99612.23
2018-05-01T08:06:37.439Z,99603.52
2018-05-01T08:09:09.415Z,99604.27
2018-05-01T08:11:41.388Z,99602.77
2018-05-01T08:14:13.330Z,99608.59
2018-05-01T08:16:45.300Z,99612.98
2018-05-01T08:19:17.303Z,99618.14
2018-05-01T08:21:49.275Z,99622.84
2018-05-01T08:24:21.235Z,99624.23
2018-05-01T08:26:53.207Z,99634.41
2018-05-01T08:29:25.150Z,99619.77
2018-05-01T08:31:57.128Z,99626.11
2018-05-01T08:34:29.135Z,99627.30
2018-05-01T08:37:01.519Z,99636.67
2018-05-01T08:39:33.463Z,99639.14
2018-05-01T08:42:05.443Z,99650.82
2018-05-01T08:44:37.398Z,99645.56
2018-05-01T08:47:09.404Z,99659.66
2018-05-01T08:49:41.359Z,99652.31
2018-05-01T08:52:13.338Z,99659.56
2018-05-01T08:54:45.291Z,99656.81
2018-05-01T08:57:17.335Z,99660.13
2018-05-01T08:59:49.238Z,99672.49
2018-05-01T09:02:21.217Z,99674.46
2018-05-01T09:04:53.175Z,99675.83
2018-05-01T09:07:25.153Z,99669.73
2018-05-01T09:09:57.099Z,99680.13
2018-05-01T09:12:29.063Z,99677.43
2018-05-01T09:15:01.286Z,99693.12
2018-05-01T09:17:33.306Z,99691.58
2018-05-01T09:20:05.357Z,99656.44
2018-05-01T09:22:37.412Z,99703.94
2018-05-01T09:25:09.365Z,99687.22
2018-05-01T09:27:41.337Z,99696.53
2018-05-01T09:30:13.319Z,99699.03
2018-05-01T09:32:45.295Z,99699.69
2018-05-01T09:35:17.259Z,99707.63
2018-05-01T09:37:49.230Z,99715.45
2018-05-01T09:40:21.175Z,99708.93
2018-05-01T09:42:53.148Z,99721.37
2018-05-01T09:45:25.099Z,99719.54
2018-05-01T09:47:57.119Z,99717.88
2018-05-01T09:50:29.097Z,99714.53
2018-05-01T09:53:02.534Z,99726.53
2018-05-01T09:55:35.036Z,99750.19
2018-05-01T09:58:07.572Z,99733.00
2018-05-01T10:00:40.156Z,99735.55
2018-05-01T10:03:12.659Z,99742.66
2018-05-01T10:05:45.180Z,99748.87
2018-05-01T10:08:17.995Z,99738.36
2018-05-01T10:10:50.596Z,99738.66
2018-05-01T10:13:23.086Z,99757.42
2018-05-01T10:15:55.687Z,99746.39
2018-05-01T10:18:28.188Z,99757.83
2018-05-01T10:21:00.743Z,99751.16
2018-05-01T10:23:33.227Z,99753.80
2018-05-01T10:26:05.762Z,99762.73
2018-05-01T10:28:38.287Z,99766.16
2018-05-01T10:31:10.779Z,99772.44
2018-05-01T10:33:43.254Z,99771.27
2018-05-01T10:36:15.848Z,99773.52
2018-05-01T10:38:48.421Z,99775.97
2018-05-01T10:41:20.919Z,99775.13
2018-05-01T10:43:53.497Z,99783.97
2018-05-01T10:46:26.001Z,99777.31
2018-05-01T10:48:58.487Z,99783.43
2018-05-01T10:51:31.490Z,99790.68
2018-05-01T10:54:04.050Z,99780.73
2018-05-01T10:56:36.553Z,99813.16
2018-05-01T10:59:09.047Z,99808.95
2018-05-01T11:01:41.608Z,99811.00
2018-05-01T11:04:14.090Z,99825.12
2018-05-01T11:06:46.595Z,99829.94
2018-05-01T11:09:19.157Z,99847.89
2018-05-01T11:11:51.814Z,99847.50
2018-05-01T11:14:24.319Z,99857.42
2018-05-01T11:16:56.900Z,99856.43
2018-05-01T11:19:29.382Z,99875.61
2018-05-01T11:22:02.965Z,99883.14
2018-05-01T11:24:35.483Z,99876.00
2018-05-01T11:27:08.007Z,99889.91
2018-05-01T11:29:40.487Z,99885.52
2018-05-01T11:32:12.993Z,99900.46
2018-05-01T11:34:45.512Z,99905.91
2018-05-01T11:37:18.019Z,99909.20
2018-05-01T11:39:50.510Z,99908.61
2018-05-01T11:42:23.055Z,99924.48
2018-05-01T11:44:55.601Z,99931.16
2018-05-01T11:47:28.133Z,99938.02
2018-05-01T11:50:01.302Z,99933.70
2018-05-01T11:52:33.812Z,99947.03
2018-05-01T11:55:06.300Z,99928.98
2018-05-01T11:57:39.525Z,99943.95
2018-05-01T12:00:12.070Z,99942.68
2018-05-01T12:02:44.569Z,99950.13
2018-05-01T12:05:17.059Z,99957.91
2018-05-01T12:07:49.660Z,99955.16
2018-05-01T12:10:22.150Z,99966.48
2018-05-01T12:12:54.650Z,99966.59
2018-05-01T12:15:27.140Z,99983.84
2018-05-01T12:17:59.680Z,99983.75
2018-05-01T12:20:32.160Z,99992.02
2018-05-01T12:23:04.752Z,99994.33
2018-05-01T12:25:37.242Z,99995.78
2018-05-01T12:28:09.767Z,100008.75
2018-05-01T12:30:42.487Z,100017.74
2018-05-01T12:33:15.111Z,100024.56
2018-05-01T12:35:47.599Z,100034.92
2018-05-01T12:38:20.743Z,100039.06
2018-05-01T12:40:53.270Z,100043.06
2018-05-01T12:43:25.783Z,100045.20
2018-05-01T12:45:58.351Z,100041.32
2018-05-01T12:48:30.969Z,100039.40
2018-05-01T12:51:03.508Z,100039.83
2018-05-01T12:53:36.027Z,100052.16
2018-05-01T12:56:08.580Z,100046.66
2018-05-01T12:58:41.099Z,100055.66
2018-05-01T13:01:13.655Z,100056.35
2018-05-01T13:03:46.163Z,100054.31
2018-05-01T13:06:18.703Z,100052.74
2018-05-01T13:08:51.850Z,100050.74
2018-05-01T13:11:24.364Z,100053.75
2018-05-01T13:13:57.006Z,100054.38
2018-05-01T13:16:29.508Z,100057.41
2018-05-01T13:19:02.052Z,100059.93
2018-05-01T13:21:34.600Z,100063.36
2018-05-01T13:24:07.122Z,100065.52
2018-05-01T13:26:39.698Z,100076.48
2018-05-01T13:29:12.218Z,100082.99
2018-05-01T13:31:44.717Z,100082.03
2018-05-01T13:34:17.243Z,100081.02
2018-05-01T13:36:50.500Z,100086.09
2018-05-01T13:39:23.017Z,100083.30
2018-05-01T13:41:55.532Z,100090.39
2018-05-01T13:44:28.024Z,100091.50
2018-05-01T13:47:00.538Z,100097.97
2018-05-01T13:49:33.024Z,100106.11
2018-05-01T13:52:05.527Z,100109.48
2018-05-01T13:54:38.019Z,100116.17
2018-05-01T13:57:10.729Z,100126.68
2018-05-01T13:59:43.223Z,100118.03
2018-05-01T14:02:15.751Z,100122.78
2018-05-01T14:04:48.416Z,100120.53
2018-05-01T14:07:21.716Z,100116.39
2018-05-01T14:09:54.295Z,100127.26
2018-05-01T14:12:26.877Z,100127.98
2018-05-01T14:14:59.363Z,100123.72
2018-05-01T14:17:31.948Z,100136.95
2018-05-01T14:20:04.440Z,100143.59
2018-05-01T14:22:37.032Z,100154.31
2018-05-01T14:25:09.535Z,100143.33
2018-05-01T14:27:42.046Z,100139.77
2018-05-01T14:30:14.547Z,100141.66
2018-05-01T14:32:47.071Z,100131.64
2018-05-01T14:35:19.590Z,100148.34
2018-05-01T14:37:52.107Z,100120.70
2018-05-01T14:40:24.610Z,100143.70
2018-05-01T14:42:57.143Z,100144.45
2018-05-01T14:45:29.671Z,100150.42
2018-05-01T14:48:02.182Z,100157.39
2018-05-01T14:50:34.744Z,100162.73
2018-05-01T14:53:07.258Z,100172.19
2018-05-01T14:55:39.750Z,100172.94
2018-05-01T14:58:12.262Z,100171.22
2018-05-01T15:00:44.784Z,100167.17
2018-05-01T15:03:17.303Z,100162.59
2018-05-01T15:05:50.570Z,100166.17
2018-05-01T15:08:23.080Z,100166.73
2018-05-01T15:10:55.586Z,100178.77
2018-05-01T15:13:28.141Z,100172.69
2018-05-01T15:16:00.702Z,100174.80
2018-05-01T15:18:33.289Z,100183.18
2018-05-01T15:21:05.780Z,100184.23
2018-05-01T15:23:38.294Z,100190.53
2018-05-01T15:26:10.803Z,100190.72
2018-05-01T15:28:43.321Z,100188.41
2018-05-01T15:31:15.837Z,100184.00
2018-05-01T15:33:48.346Z,100180.23
2018-05-01T15:36:21.706Z,100177.26
2018-05-01T15:38:54.219Z,100181.38
2018-05-01T15:41:26.768Z,100180.03
2018-05-01T15:43:59.282Z,100183.91
2018-05-01T15:46:31.786Z,100178.56
2018-05-01T15:49:04.296Z,100185.06
2018-05-01T15:51:36.792Z,100190.95
2018-05-01T15:54:09.395Z,100196.53
2018-05-01T15:56:41.891Z,100189.26
2018-05-01T15:59:14.472Z,100197.69
2018-05-01T16:01:46.967Z,100199.23
2018-05-01T16:04:20.102Z,100201.86
2018-05-01T16:06:52.640Z,100199.95
2018-05-01T16:09:25.200Z,100205.72
2018-05-01T16:11:57.709Z,100202.87
2018-05-01T16:14:30.220Z,100204.14
2018-05-01T16:17:02.760Z,100206.11
2018-05-01T16:19:35.272Z,100208.73
2018-05-01T16:22:07.832Z,100213.84
2018-05-01T16:24:40.352Z,100207.66
2018-05-01T16:27:12.857Z,100194.52
2018-05-01T16:29:45.368Z,100211.11
2018-05-01T16:32:17.974Z,100212.14
2018-05-01T16:34:50.959Z,100199.15
2018-05-01T16:37:23.763Z,100217.98
2018-05-01T16:39:56.287Z,100221.21
2018-05-01T16:42:28.779Z,100214.71
2018-05-01T16:45:01.314Z,100209.05
2018-05-01T16:47:33.924Z,100219.83
2018-05-01T16:50:06.443Z,100224.20
2018-05-01T16:52:38.938Z,100234.13
2018-05-01T16:55:11.542Z,100226.50
2018-05-01T16:57:44.043Z,100234.40
2018-05-01T17:00:16.628Z,100237.51
2018-05-01T17:02:49.272Z,100242.38
2018-05-01T17:05:22.938Z,100235.16
2018-05-01T17:07:55.432Z,100235.81
2018-05-01T17:10:27.980Z,100237.35
2018-05-01T17:13:00.503Z,100245.13
2018-05-01T17:15:33.004Z,100242.59
2018-05-01T17:18:05.744Z,100248.98
2018-05-01T17:20:38.322Z,100252.55
2018-05-01T17:23:10.911Z,100266.36
2018-05-01T17:25:43.395Z,100262.20
2018-05-01T17:28:15.978Z,100270.04
2018-05-01T17:30:48.580Z,100272.86
2018-05-01T17:33:21.808Z,100277.48
2018-05-01T17:35:54.291Z,100283.88
2018-05-01T17:38:26.824Z,100289.71
2018-05-01T17:40:59.426Z,100296.04
2018-05-01T17:43:31.946Z,100289.03
2018-05-01T17:46:04.430Z,100296.25
2018-05-01T17:48:36.943Z,100306.83
2018-05-01T17:51:09.447Z,100306.63
2018-05-01T17:53:41.952Z,100310.41
2018-05-01T17:56:14.468Z,100305.66
2018-05-01T17:58:46.982Z,100307.87
2018-05-01T18:01:19.703Z,100319.27
2018-05-01T18:03:52.219Z,100324.96
2018-05-01T18:06:24.712Z,100328.95
2018-05-01T18:08:57.252Z,100331.53
2018-05-01T18:11:29.750Z,100335.53
2018-05-01T18:14:03.084Z,100335.45
2018-05-01T18:16:35.575Z,100336.19
2018-05-01T18:19:08.083Z,100346.36
2018-05-01T18:21:40.571Z,100347.50
2018-05-01T18:24:13.081Z,100350.45
2018-05-01T18:26:45.662Z,100356.16
2018-05-01T18:29:18.172Z,100358.34
2018-05-01T18:31:50.662Z,100355.98
2018-05-01T18:34:23.645Z,100362.66
2018-05-01T18:36:56.143Z,100360.73
2018-05-01T18:39:28.694Z,100352.63
2018-05-01T18:42:01.191Z,100356.36
2018-05-01T18:44:33.709Z,100369.52
2018-05-01T18:47:06.207Z,100369.41
2018-05-01T18:49:38.754Z,100381.84
2018-05-01T18:52:11.238Z,100390.22
2018-05-01T18:54:43.808Z,100388.43
2018-05-01T18:57:16.303Z,100398.03
2018-05-01T18:59:48.935Z,100400.84
2018-05-01T19:02:22.253Z,100401.92
2018-05-01T19:04:54.779Z,100411.11
2018-05-01T19:07:27.343Z,100415.06
2018-05-01T19:09:59.911Z,100421.53
2018-05-01T19:12:32.408Z,100421.24
2018-05-01T19:15:05.110Z,100417.55
2018-05-01T19:17:37.890Z,100425.79
2018-05-01T19:20:10.403Z,100418.36
2018-05-01T19:22:42.915Z,100425.83
2018-05-01T19:25:16.375Z,100430.11
2018-05-01T19:27:50.025Z,100428.47
2018-05-01T19:30:23.813Z,100433.89
2018-05-01T19:32:56.330Z,100430.75
2018-05-01T19:35:28.946Z,100429.55
2018-05-01T19:38:01.671Z,100424.95
2018-05-01T19:40:34.661Z,100429.22
2018-05-01T19:43:07.336Z,100434.47
2018-05-01T19:45:39.968Z,100440.00
2018-05-01T19:48:12.674Z,100439.13
2018-05-01T19:50:45.600Z,100447.19
2018-05-01T19:53:18.822Z,100449.09
2018-05-01T19:55:52.927Z,100461.00
2018-05-01T19:58:25.762Z,100458.60
2018-05-01T20:00:58.623Z,100466.74
2018-05-01T20:03:31.262Z,100480.83
2018-05-01T20:06:03.847Z,100491.11
2018-05-01T20:08:37.277Z,100498.64
2018-05-01T20:11:10.201Z,100507.24
2018-05-01T20:13:42.805Z,100506.34
2018-05-01T20:16:15.828Z,100503.73
2018-05-01T20:18:49.683Z,100510.16
2018-05-01T20:21:22.883Z,100507.24
2018-05-01T20:23:55.546Z,100522.72
2018-05-01T20:26:29.514Z,100531.66
2018-05-01T20:29:02.075Z,100530.06
2018-05-01T20:31:35.291Z,100534.80
2018-05-01T20:34:08.492Z,100532.67
2018-05-01T20:36:42.043Z,100534.33
2018-05-01T20:39:14.956Z,100547.56
2018-05-01T20:41:47.985Z,100552.24
2018-05-01T20:44:22.112Z,100547.81
2018-05-01T20:46:55.008Z,100553.44
2018-05-01T20:49:28.098Z,100551.50
2018-05-01T20:52:00.887Z,100559.55
2018-05-01T20:54:33.644Z,100558.73
2018-05-01T20:57:06.247Z,100563.06
2018-05-01T20:59:38.771Z,100563.98
2018-05-01T21:02:11.271Z,100556.45
2018-05-01T21:04:43.775Z,100560.39
2018-05-01T21:07:16.394Z,100553.27
2018-05-01T21:09:48.954Z,100552.50
2018-05-01T21:12:22.168Z,100550.79
2018-05-01T21:14:54.674Z,100547.09
2018-05-01T21:17:27.155Z,100548.87
2018-05-01T21:19:59.727Z,100549.39
2018-05-01T21:22:32.299Z,100560.09
2018-05-01T21:25:04.809Z,100557.30
2018-05-01T21:27:37.317Z,100550.67
2018-05-01T21:30:09.863Z,100565.97
2018-05-01T21:32:42.449Z,100561.85
2018-05-01T21:35:15.035Z,100569.47
2018-05-01T21:37:47.614Z,100582.33
2018-05-01T21:40:21.347Z,100576.06
2018-05-01T21:42:53.840Z,100582.92
2018-05-01T21:45:26.348Z,100577.91
2018-05-01T21:47:58.836Z,100580.94
2018-05-01T21:50:31.358Z,100572.12
2018-05-01T21:53:03.843Z,100578.48
2018-05-01T21:55:36.439Z,100578.83
2018-05-01T21:58:08.917Z,100582.63
2018-05-01T22:00:41.419Z,100588.54
2018-05-01T22:03:13.899Z,100595.80
2018-05-01T22:05:46.395Z,100605.58
2018-05-01T22:08:18.893Z,100598.44
2018-05-01T22:10:52.267Z,100601.08
2018-05-01T22:13:24.987Z,100598.56
2018-05-01T22:15:57.506Z,100592.23
2018-05-01T22:18:29.982Z,100602.86
2018-05-01T22:21:02.487Z,100614.85
2018-05-01T22:23:34.990Z,100616.30
2018-05-01T22:28:45.689Z,100602.81
2018-05-01T22:31:18.119Z,100608.34
2018-05-01T22:33:50.610Z,100605.47
2018-05-01T22:36:23.114Z,100602.97
2018-05-01T22:38:55.594Z,100609.77
2018-05-01T22:41:28.103Z,100622.80
2018-05-01T22:44:00.599Z,100630.39
2018-05-01T22:46:33.111Z,100628.71
2018-05-01T22:49:05.663Z,100627.10
2018-05-01T22:51:38.177Z,100634.29
2018-05-01T22:54:10.675Z,100634.73
2018-05-01T22:56:43.183Z,100624.14
2018-05-01T22:59:15.699Z,100613.17
2018-05-01T23:01:48.288Z,100618.31
2018-05-01T23:04:20.868Z,100616.26
2018-05-01T23:06:53.368Z,100612.91
2018-05-01T23:09:25.865Z,100611.30
2018-05-01T23:11:58.377Z,100609.20
2018-05-01T23:14:30.883Z,100600.75
2018-05-01T23:17:03.382Z,100602.87
2018-05-01T23:19:35.880Z,100596.95
2018-05-01T23:22:08.400Z,100604.58
2018-05-01T23:24:40.878Z,100602.48
2018-05-01T23:27:13.387Z,100598.27
2018-05-01T23:29:45.867Z,100602.92
2018-05-01T23:32:18.395Z,100593.21
2018-05-01T23:34:51.517Z,100597.02
2018-05-01T23:37:24.024Z,100596.20
2018-05-01T23:39:56.567Z,100593.64
2018-05-01T23:42:29.091Z,100591.53
2018-05-01T23:45:01.593Z,100594.91
2018-05-01T23:47:34.119Z,100596.99
2018-05-01T23:50:06.614Z,100598.27
2018-05-01T23:52:39.188Z,100582.66
2018-05-01T23:55:11.780Z,100585.19
2018-05-01T23:57:44.371Z,100590.66
